Coyville, Kansas
Current Conditions -  °F | °C
As of 6:52 AM on Friday 31 Oct 2014 (Local Time) from KCNU Reporting Station
Overcast Overcast  
Wind Chill: 40°   Ceiling: 2300
Heat Index: 46°   Visibility: 10mi
Dew Point: 37°   Wind: 15mph
Humidity: 71%   Direction: 350°N
Pressure: 30.36"   Gusts: 28mph
Location:  37.69°N, 95.9°W
Report Text: KCNU 311152Z AUTO 35013G24KT 10SM OVC023 08/03 A3036 RMK AO2 PK WND 35026/1114 SLP278 T00780028 10106 20078 53026
Loading
Personal Weather Stations






























Interactive Weather Map
Tropical Storm Tracking
New forecast layout! Learn more

10-Day Weather Forecast

Advertisements
Track Severe Weather on mobile